Flight Track Log - Related Links

Times and Time Zones

All times are in EDT time to prevent confusion due to time zone crossing. See the C-GKZT flight status page for this flight to view local times or setup timezone preferences in your user account.

Time Position Orientation Groundspeed Altitude Reporting Facility
EDT Latitude Longitude Course Direction KTS MPH feet Rate Location/Type
Thu 05:09:19 PM 53.2833 -113.6333 225° Southwest 190 219 3,200  Level Edmonton Center
Thu 05:10:19 PM 53.2333 -113.7167 225° Southwest 240 276 5,800 2,700 Climbing Edmonton Center
Thu 05:11:19 PM 53.2500 -113.8333 283° West 250 288 8,600 2,500 Climbing Edmonton Center
Thu 05:12:19 PM 53.2500 -113.9500 270° West 260 299 10,800 2,350 Climbing Edmonton Center
Thu 05:13:19 PM 53.2667 -114.0833 282° West 270 311 13,300 2,300 Climbing Edmonton Center
Thu 05:14:19 PM 53.2833 -114.2000 283° West 280 322 15,400 2,200 Climbing Edmonton Center
Thu 05:15:19 PM 53.2833 -114.3500 270° West 290 334 17,700 2,150 Climbing Edmonton Center
Thu 05:16:19 PM 53.3167 -114.4667 296° West 290 334 19,700 2,000 Climbing Edmonton Center
Thu 05:17:19 PM 53.3167 -114.6167 270° West 300 345 21,700 2,150 Climbing Edmonton Center
Thu 05:18:19 PM 53.3333 -114.7667 281° West 300 345 24,000 2,150 Climbing Edmonton Center
Thu 05:19:19 PM 53.3500 -114.8833 284° West 300 345 26,000 2,100 Climbing Edmonton Center
Thu 05:20:19 PM 53.3667 -115.0333 281° West 290 334 28,200 2,050 Climbing Edmonton Center
Thu 05:21:19 PM 53.3667 -115.1667 270° West 280 322 30,100 1,700 Climbing Edmonton Center
Thu 05:22:19 PM 53.4000 -115.2833 296° West 280 322 31,600 1,350 Climbing Edmonton Center
Thu 05:23:19 PM 53.4000 -115.4333 270° West 290 334 32,800 1,350 Climbing Edmonton Center
Thu 05:24:19 PM 53.4167 -115.5500 284° West 280 322 34,300 1,100 Climbing Edmonton Center
Thu 05:25:19 PM 53.4167 -115.7000 270° West 280 322 35,000 750 Climbing Edmonton Center
Thu 05:26:19 PM 53.4500 -115.8167 296° West 290 334 35,800 900 Climbing Edmonton Center
Thu 05:27:19 PM 53.4500 -115.9667 270° West 290 334 36,800 750 Climbing Edmonton Center
Thu 05:28:19 PM 53.4667 -116.1167 281° West 300 345 37,300 550 Climbing Edmonton Center
Thu 05:29:19 PM 53.4667 -116.2500 270° West 300 345 37,900 800 Climbing Edmonton Center
Thu 05:30:19 PM 53.5000 -116.3833 293° West 310 357 38,900 850 Climbing Edmonton Center
Thu 05:31:19 PM 53.5000 -116.5167 270° West 300 345 39,600 550 Climbing Edmonton Center
Thu 05:32:19 PM 53.5167 -116.6667 281° West 290 334 40,000 200 Climbing Edmonton Center
Thu 05:33:19 PM 53.5167 -116.7833 270° West 300 345 40,000  Level Edmonton Center
Thu 05:34:19 PM 53.5333 -116.9667 279° West 320 368 40,000  Level Edmonton Center
Thu 05:35:19 PM 53.5500 -117.1167 281° West 330 380 40,000  Level Edmonton Center
Thu 05:36:19 PM 53.5500 -117.2667 270° West 340 391 40,000  Level Edmonton Center
Thu 05:37:19 PM 53.5667 -117.4333 280° West 340 391 40,000  Level Edmonton Center
Thu 05:38:19 PM 53.5833 -117.5833 281° West 350 403 40,000  Level Edmonton Center
Thu 05:39:19 PM 53.6000 -117.7667 279° West 350 403 40,000  Level Edmonton Center
Thu 05:40:19 PM 53.6167 -117.9167 281° West 360 414 40,000  Level Edmonton Center
Thu 05:41:19 PM 53.6333 -118.1000 279° West 360 414 40,000  Level Edmonton Center
Thu 05:42:19 PM 53.6333 -118.2667 270° West 360 414 40,000  Level Edmonton Center
Thu 05:43:19 PM 53.6500 -118.4167 281° West 360 414 40,000  Level Edmonton Center
Thu 05:44:19 PM 53.6667 -118.6000 279° West 370 426 40,000  Level Edmonton Center
Thu 05:45:19 PM 53.6833 -118.7833 279° West 360 414 40,000  Level Edmonton Center
Thu 05:46:19 PM 53.6833 -118.9500 270° West 370 426 40,000  Level Edmonton Center
Thu 05:47:19 PM 53.7000 -119.1333 279° West 360 414 40,000  Level Edmonton Center
Thu 05:48:19 PM 53.7167 -119.3167 279° West 360 414 40,000  Level Edmonton Center
Thu 05:49:19 PM 53.7333 -119.4667 281° West 360 414 40,000  Level Edmonton Center
Thu 05:50:19 PM 53.7167 -119.6333 260° West 360 414 40,000  Level Edmonton Center
Thu 05:51:19 PM 53.7333 -119.8167 279° West 370 426 40,000 -300 Level Edmonton Center
Thu 05:52:19 PM 53.7500 -119.9667 281° West 360 414 39,400 -1,200 Descending Edmonton Center
Thu 05:53:19 PM 53.7500 -120.1667 270° West 370 426 37,600 -1,750 Descending Edmonton Center
Thu 05:54:19 PM 53.7667 -120.3167 281° West 370 426 35,900 -1,900 Descending Edmonton Center
Thu 05:55:19 PM 53.8000 -120.5167 286° West 380 437 33,800 -2,000 Descending Edmonton Center
Thu 05:56:19 PM 53.8167 -120.7000 279° West 370 426 31,900 -2,050 Descending Edmonton Center
Thu 05:57:19 PM 53.8333 -120.8833 279° West 380 437 29,700 -2,147 Descending Edmonton Center
Thu 05:58:08 PM 53.8833 -120.9333 329° Northwest 380 437 28,000 -2,092 Descending Vancouver Center
Thu 05:59:08 PM 53.9000 -121.1333 278° West 390 449 25,900 -2,150 Descending Vancouver Center
Thu 06:00:08 PM 53.9167 -121.3000 280° West 380 437 23,700 -2,200 Descending Vancouver Center
Thu 06:01:08 PM 53.9333 -121.4667 280° West 370 426 21,500 -2,150 Descending Vancouver Center
Thu 06:02:08 PM 53.9500 -121.6500 279° West 360 414 19,400 -2,100 Descending Vancouver Center
Thu 06:03:08 PM 53.9667 -121.7833 282° West 350 403 17,300 -2,250 Descending Vancouver Center
Thu 06:04:08 PM 53.9500 -121.9500 260° West 340 391 14,900 -2,250 Descending Vancouver Center
Thu 06:05:08 PM 53.9500 -122.1000 270° West 330 380 12,800 -2,200 Descending Vancouver Center
Thu 06:06:08 PM 53.9333 -122.2667 260° West 320 368 10,500 -2,400 Descending Vancouver Center
Thu 06:07:08 PM 53.9500 -122.4000 282° West 320 368 8,000 -2,900 Descending Vancouver Center
Thu 06:08:08 PM 53.9333 -122.5167 256° West 260 299 4,700 -2,250 Descending Vancouver Center
Thu 06:09:08 PM 53.9167 -122.6000 251° West 220 253 3,500 -1,100 Descending Vancouver Center
Thu 06:10:08 PM 53.9000 -122.6667 247° West 150 173 2,500 -1,000 Descending Vancouver Center

Login

Don't have an account? Register now (free) for customized features, flight alerts, and more!